createdAt,value
2023-01-12T00:02:29.411Z,9.40
2023-01-12T00:07:29.791Z,9.40
2023-01-12T00:18:52.533Z,9.40
2023-01-12T00:23:52.417Z,9.40
2023-01-12T00:28:50.945Z,9.40
2023-01-12T00:33:49.132Z,9.50
2023-01-12T00:38:48.812Z,9.50
2023-01-12T00:44:05.843Z,9.50
2023-01-12T00:49:04.533Z,9.80
2023-01-12T00:54:05.029Z,9.50
2023-01-12T00:59:05.672Z,9.50
2023-01-12T01:04:03.860Z,9.50
2023-01-12T01:09:02.053Z,9.50
2023-01-12T01:14:01.057Z,9.50
2023-01-12T01:19:01.258Z,9.50
2023-01-12T01:23:59.798Z,9.50
2023-01-12T01:28:58.964Z,9.50
2023-01-12T01:33:57.482Z,9.60
2023-01-12T01:38:57.443Z,9.60
2023-01-12T01:43:59.071Z,9.60
2023-01-12T01:48:59.078Z,9.90
2023-01-12T01:54:00.277Z,9.60
2023-01-12T01:59:03.350Z,9.60
2023-01-12T02:04:02.411Z,9.60
2023-01-12T02:09:07.465Z,9.60
2023-01-12T02:14:23.655Z,9.70
2023-01-12T02:19:38.345Z,9.60
2023-01-12T02:25:02.433Z,9.80
2023-01-12T02:30:34.207Z,9.60
2023-01-12T02:35:43.232Z,9.70
2023-01-12T02:40:49.574Z,9.70
2023-01-12T02:45:53.100Z,9.90
2023-01-12T02:50:57.540Z,9.70
2023-01-12T02:55:56.047Z,9.80
2023-01-12T03:00:57.586Z,9.80
2023-01-12T03:06:00.393Z,9.90
2023-01-12T03:11:08.590Z,9.90
2023-01-12T03:16:10.811Z,9.90
2023-01-12T03:21:13.866Z,9.80
2023-01-12T03:26:14.978Z,9.90
2023-01-12T03:31:15.545Z,9.80
2023-01-12T03:36:21.241Z,9.80
2023-01-12T03:41:28.317Z,9.90
2023-01-12T03:46:31.464Z,9.80
2023-01-12T03:51:36.085Z,9.80
2023-01-12T03:56:37.726Z,9.70
2023-01-12T04:01:36.328Z,9.70
2023-01-12T04:06:36.373Z,9.70
2023-01-12T04:11:52.259Z,9.70
2023-01-12T04:16:50.826Z,9.70
2023-01-12T04:22:07.514Z,9.70
2023-01-12T04:27:06.015Z,9.70
2023-01-12T04:32:05.820Z,9.70
2023-01-12T04:37:05.382Z,9.70
2023-01-12T04:42:03.946Z,9.70
2023-01-12T04:47:02.470Z,9.70
2023-01-12T04:52:00.667Z,9.70
2023-01-12T04:57:00.514Z,9.80
2023-01-12T05:01:59.010Z,9.80
2023-01-12T05:06:57.578Z,9.80
2023-01-12T05:11:56.264Z,9.80
2023-01-12T05:16:57.374Z,9.80
2023-01-12T05:21:56.064Z,9.80
2023-01-12T05:26:54.850Z,9.80
2023-01-12T05:31:55.958Z,9.90
2023-01-12T05:36:54.163Z,9.90
2023-01-12T05:42:10.055Z,9.90
2023-01-12T05:47:09.934Z,10.00
2023-01-12T05:52:08.501Z,10.00
2023-01-12T05:57:07.030Z,10.00
2023-01-12T06:02:05.306Z,10.00
2023-01-12T06:07:05.276Z,10.00
2023-01-12T06:12:20.789Z,10.00
2023-01-12T06:17:19.885Z,10.00
2023-01-12T06:22:20.071Z,10.00
2023-01-12T06:27:18.587Z,10.10
2023-01-12T06:32:17.189Z,10.10
2023-01-12T06:37:16.924Z,10.10
2023-01-12T06:42:32.276Z,10.10
2023-01-12T06:47:31.170Z,10.10
2023-01-12T06:52:30.313Z,10.10
2023-01-12T06:57:30.625Z,10.10
2023-01-12T07:02:29.507Z,10.10
2023-01-12T07:07:28.133Z,10.20
2023-01-12T07:12:26.648Z,10.20
2023-01-12T07:17:26.349Z,10.20
2023-01-12T07:22:26.508Z,10.20
2023-01-12T07:27:25.064Z,10.20
2023-01-12T07:32:29.870Z,10.20
2023-01-12T07:37:29.059Z,10.30
2023-01-12T07:42:27.281Z,10.30
2023-01-12T07:47:28.073Z,10.20
2023-01-12T07:52:26.591Z,10.20
2023-01-12T07:57:25.763Z,10.20
2023-01-12T08:02:24.389Z,10.20
2023-01-12T08:07:24.372Z,10.20
2023-01-12T08:12:22.920Z,10.20
2023-01-12T08:17:24.748Z,10.20
2023-01-12T08:22:29.573Z,10.20
2023-01-12T08:27:31.051Z,10.20
2023-01-12T08:32:30.719Z,10.20
2023-01-12T08:37:36.838Z,10.20
2023-01-12T08:42:35.617Z,10.20
2023-01-12T08:47:33.918Z,10.20
2023-01-12T08:52:36.160Z,10.20
2023-01-12T08:57:34.331Z,10.20
2023-01-12T09:02:33.304Z,10.20
2023-01-12T09:07:34.365Z,10.20
2023-01-12T09:12:33.445Z,10.20
2023-01-12T09:17:31.947Z,10.20
2023-01-12T09:22:30.500Z,10.20
2023-01-12T09:27:30.478Z,10.20
2023-01-12T09:32:36.193Z,10.20
2023-01-12T09:37:35.566Z,10.20
2023-01-12T09:42:53.258Z,10.10
2023-01-12T09:47:55.677Z,10.10
2023-01-12T09:52:58.692Z,10.20
2023-01-12T09:58:17.317Z,10.20
2023-01-12T10:03:25.217Z,10.20
2023-01-12T10:08:32.417Z,10.20
2023-01-12T10:13:52.929Z,10.20
2023-01-12T10:25:48.654Z,10.30
2023-01-12T10:30:48.426Z,10.30
2023-01-12T10:35:53.653Z,10.30
2023-01-12T10:41:23.550Z,10.40
2023-01-12T10:46:24.593Z,10.40
2023-01-12T10:51:28.678Z,10.50
2023-01-12T10:56:32.227Z,10.50
2023-01-12T11:08:29.103Z,10.60
2023-01-12T11:13:33.390Z,10.60
2023-01-12T11:18:38.533Z,10.70
2023-01-12T11:23:44.424Z,10.70
2023-01-12T11:28:48.021Z,10.80
2023-01-12T11:33:52.039Z,10.80
2023-01-12T11:38:55.743Z,10.80
2023-01-12T11:44:02.441Z,10.90
2023-01-12T11:49:11.402Z,10.90
2023-01-12T11:54:17.512Z,10.90
2023-01-12T11:59:24.777Z,11.00
2023-01-12T12:04:37.395Z,11.00
2023-01-12T12:09:50.378Z,11.10
2023-01-12T12:15:06.628Z,11.10
2023-01-12T12:20:14.164Z,11.10
2023-01-12T12:25:25.450Z,11.20
2023-01-12T12:30:32.935Z,11.20
2023-01-12T12:35:45.543Z,11.20
2023-01-12T12:41:13.588Z,11.30
2023-01-12T12:46:20.825Z,11.40
2023-01-12T12:51:20.032Z,11.40
2023-01-12T12:56:22.537Z,11.40
2023-01-12T13:01:57.529Z,11.40
2023-01-12T13:06:56.181Z,11.50
2023-01-12T13:12:10.757Z,11.50
2023-01-12T13:17:45.516Z,11.60
2023-01-12T13:22:49.059Z,11.60
2023-01-12T13:28:12.645Z,11.70
2023-01-12T13:33:27.970Z,11.70
2023-01-12T13:38:47.519Z,11.80
2023-01-12T13:43:54.806Z,11.70
2023-01-12T13:48:55.605Z,11.70
2023-01-12T13:54:01.326Z,11.70
2023-01-12T13:59:03.154Z,11.80
2023-01-12T14:04:20.362Z,11.70
2023-01-12T14:09:26.185Z,11.80
2023-01-12T14:15:08.884Z,11.80
2023-01-12T14:20:15.993Z,11.90
2023-01-12T14:25:17.118Z,11.90
2023-01-12T14:30:17.127Z,11.90
2023-01-12T14:36:17.398Z,11.90
2023-01-12T14:41:38.196Z,12.00
2023-01-12T14:46:49.790Z,12.00
2023-01-12T14:51:54.712Z,12.00
2023-01-12T14:56:56.950Z,12.00
2023-01-12T15:02:18.539Z,12.00
2023-01-12T15:07:20.052Z,12.00
2023-01-12T15:12:44.583Z,12.00
2023-01-12T15:18:02.732Z,12.00
2023-01-12T15:23:18.944Z,12.00
2023-01-12T15:28:17.507Z,12.00
2023-01-12T15:33:17.843Z,11.90
2023-01-12T15:38:18.426Z,11.90
2023-01-12T15:43:18.641Z,11.90
2023-01-12T15:48:18.438Z,11.90
2023-01-12T15:53:20.324Z,11.90
2023-01-12T15:58:19.899Z,11.90
2023-01-12T16:03:48.292Z,11.90
2023-01-12T16:08:38.824Z,11.90
2023-01-12T16:13:37.431Z,12.00
2023-01-12T16:18:37.002Z,12.00
2023-01-12T16:23:35.153Z,12.00
2023-01-12T16:28:33.731Z,12.00
2023-01-12T16:34:33.540Z,12.00
2023-01-12T16:39:33.717Z,12.00
2023-01-12T16:44:32.737Z,12.00
2023-01-12T16:49:31.332Z,12.00
2023-01-12T16:54:30.032Z,12.00
2023-01-12T16:59:30.059Z,12.00
2023-01-12T17:04:28.715Z,12.10
2023-01-12T17:09:26.944Z,12.00
2023-01-12T17:14:27.510Z,12.10
2023-01-12T17:19:28.722Z,12.10
2023-01-12T17:24:27.756Z,12.10
2023-01-12T17:29:27.153Z,12.10
2023-01-12T17:34:29.748Z,12.10
2023-01-12T17:39:28.135Z,12.10
2023-01-12T17:44:26.563Z,12.10
2023-01-12T17:49:25.541Z,12.10
2023-01-12T17:55:05.209Z,12.10
2023-01-12T18:00:06.695Z,12.10
2023-01-12T18:05:11.711Z,12.10
2023-01-12T18:10:11.819Z,12.10
2023-01-12T18:15:12.990Z,12.10
2023-01-12T18:20:12.365Z,12.10
2023-01-12T18:25:10.984Z,12.10
2023-01-12T18:30:12.899Z,12.10
2023-01-12T18:35:14.109Z,12.10
2023-01-12T18:40:14.156Z,12.20
2023-01-12T18:45:14.117Z,12.10
2023-01-12T18:50:30.577Z,12.10
2023-01-12T18:55:29.150Z,12.10
2023-01-12T19:00:29.120Z,12.10
2023-01-12T19:05:35.258Z,12.10
2023-01-12T19:10:35.541Z,12.10
2023-01-12T19:15:54.976Z,12.10
2023-01-12T19:21:13.233Z,12.10
2023-01-12T19:26:29.802Z,12.10
2023-01-12T19:31:29.379Z,12.10
2023-01-12T19:36:28.400Z,12.10
2023-01-12T19:41:44.127Z,12.10
2023-01-12T19:46:44.193Z,12.10
2023-01-12T19:51:45.915Z,12.10
2023-01-12T19:56:47.167Z,12.30
2023-01-12T20:01:47.213Z,12.20
2023-01-12T20:06:45.850Z,12.20
2023-01-12T20:11:44.401Z,12.10
2023-01-12T20:16:43.178Z,12.10
2023-01-12T20:21:43.201Z,12.10
2023-01-12T20:26:42.549Z,12.10
2023-01-12T20:31:41.140Z,12.10
2023-01-12T20:36:40.526Z,12.10
2023-01-12T20:41:41.437Z,12.10
2023-01-12T20:46:39.767Z,12.10
2023-01-12T20:51:39.023Z,12.10
2023-01-12T20:56:37.602Z,12.10
2023-01-12T21:01:37.547Z,12.10
2023-01-12T21:06:36.310Z,12.10
2023-01-12T21:11:34.571Z,12.10
2023-01-12T21:16:33.783Z,12.10
2023-01-12T21:21:33.782Z,12.10
2023-01-12T21:26:32.564Z,12.10
2023-01-12T21:31:31.199Z,12.10
2023-01-12T21:36:29.957Z,12.10
2023-01-12T21:41:29.914Z,12.00
2023-01-12T21:46:31.790Z,12.00
2023-01-12T21:51:30.024Z,12.00
2023-01-12T21:56:30.308Z,12.00
2023-01-12T22:01:29.259Z,12.00
2023-01-12T22:06:27.979Z,12.00
2023-01-12T22:11:26.524Z,12.00
2023-01-12T22:16:26.541Z,11.90
2023-01-12T22:21:25.096Z,11.90
2023-01-12T22:26:23.688Z,11.90
2023-01-12T22:31:24.052Z,11.90
2023-01-12T22:36:24.342Z,11.90
2023-01-12T22:41:24.695Z,12.00
2023-01-12T22:46:24.910Z,12.00
2023-01-12T22:51:26.492Z,12.00
2023-01-12T22:56:25.312Z,12.00
2023-01-12T23:01:25.770Z,12.00
2023-01-12T23:06:27.060Z,12.00
2023-01-12T23:11:28.181Z,12.00
2023-01-12T23:16:27.252Z,12.00
2023-01-12T23:21:29.217Z,12.00
2023-01-12T23:26:31.489Z,12.10
2023-01-12T23:31:31.388Z,12.00
2023-01-12T23:36:31.817Z,12.00
2023-01-12T23:41:32.353Z,12.10
2023-01-12T23:46:34.779Z,12.10
2023-01-12T23:51:36.585Z,12.10
2023-01-12T23:56:35.169Z,12.10
